createdAt,value
2017-10-23T00:00:47.815Z,90.89
2017-10-23T00:01:47.858Z,91.28
2017-10-23T00:02:47.850Z,91.08
2017-10-23T00:03:47.865Z,90.61
2017-10-23T00:04:47.886Z,90.99
2017-10-23T00:05:47.902Z,90.52
2017-10-23T00:06:47.921Z,90.08
2017-10-23T00:07:47.988Z,89.51
2017-10-23T00:08:47.956Z,90.18
2017-10-23T00:09:47.975Z,89.89
2017-10-23T00:10:47.988Z,89.66
2017-10-23T00:11:48.015Z,90.52
2017-10-23T00:12:48.029Z,90.04
2017-10-23T00:13:48.043Z,90.33
2017-10-23T00:14:48.066Z,90.23
2017-10-23T00:15:48.077Z,90.33
2017-10-23T00:16:48.093Z,90.23
2017-10-23T00:17:48.106Z,89.56
2017-10-23T00:18:48.128Z,90.04
2017-10-23T00:19:48.146Z,90.33
2017-10-23T00:20:48.155Z,90.23
2017-10-23T00:21:48.183Z,89.66
2017-10-23T00:22:48.214Z,90.04
2017-10-23T00:23:48.262Z,90.18
2017-10-23T00:24:48.246Z,89.89
2017-10-23T00:25:48.249Z,89.32
2017-10-23T00:26:48.264Z,88.94
2017-10-23T00:27:48.283Z,89.23
2017-10-23T00:28:48.295Z,88.66
2017-10-23T00:29:48.314Z,88.9
2017-10-23T00:30:48.656Z,89.94
2017-10-23T00:31:48.353Z,90.04
2017-10-23T00:32:48.385Z,90.14
2017-10-23T00:33:48.380Z,90.14
2017-10-23T00:34:48.399Z,90.04
2017-10-23T00:35:48.749Z,90.52
2017-10-23T00:36:48.450Z,89.47
2017-10-23T00:37:48.780Z,90.08
2017-10-23T00:38:48.526Z,90.08
2017-10-23T00:39:48.488Z,89.8
2017-10-23T00:40:48.500Z,89.42
2017-10-23T00:41:48.520Z,89.51
2017-10-23T00:42:48.533Z,89.23
2017-10-23T00:43:48.553Z,88.94
2017-10-23T00:44:48.572Z,88.66
2017-10-23T00:45:48.591Z,89.32
2017-10-23T00:46:48.602Z,89.32
2017-10-23T00:47:48.623Z,88.94
2017-10-23T00:48:48.639Z,89.04
2017-10-23T00:49:48.655Z,89.04
2017-10-23T00:50:48.672Z,88.85
2017-10-23T00:51:48.696Z,89.04
2017-10-23T00:52:48.712Z,89.23
2017-10-23T00:53:48.733Z,88.94
2017-10-23T00:54:48.743Z,88.37
2017-10-23T00:55:48.808Z,88.66
2017-10-23T00:56:48.777Z,88.66
2017-10-23T00:57:48.795Z,89.04
2017-10-23T00:58:48.817Z,89.32
2017-10-23T00:59:48.828Z,88.46
2017-10-23T01:00:48.853Z,88.28
2017-10-23T01:01:48.882Z,88.28
2017-10-23T01:02:48.877Z,87.99
2017-10-23T01:03:48.896Z,88.56
2017-10-23T01:04:48.924Z,88.28
2017-10-23T01:05:48.932Z,88.75
2017-10-23T01:06:48.957Z,89.09
2017-10-23T01:07:48.978Z,89.18
2017-10-23T01:08:48.984Z,89
2017-10-23T01:09:49.001Z,88.66
2017-10-23T01:10:49.020Z,87.99
2017-10-23T01:11:49.035Z,88.37
2017-10-23T01:12:49.050Z,88.52
2017-10-23T01:13:49.069Z,88.75
2017-10-23T01:14:49.087Z,88.66
2017-10-23T01:15:49.455Z,88.94
2017-10-23T01:16:49.123Z,89.37
2017-10-23T01:17:49.140Z,89.09
2017-10-23T01:18:49.488Z,89
2017-10-23T01:19:49.171Z,89.28
2017-10-23T01:20:49.193Z,89.28
2017-10-23T01:21:49.207Z,89.18
2017-10-23T01:22:49.222Z,89.32
2017-10-23T01:23:49.250Z,89
2017-10-23T01:24:49.590Z,88.56
2017-10-23T01:25:49.604Z,88.94
2017-10-23T01:26:49.615Z,89
2017-10-23T01:27:49.322Z,89
2017-10-23T01:28:49.326Z,88.85
2017-10-23T01:29:49.671Z,88.66
2017-10-23T01:30:49.512Z,88.9
2017-10-23T01:31:50.062Z,88.9
2017-10-23T01:32:49.398Z,88.8
2017-10-23T01:33:49.415Z,89.04
2017-10-23T01:34:49.429Z,88.28
2017-10-23T01:35:49.454Z,89
2017-10-23T01:36:49.464Z,89.09
2017-10-23T01:37:49.494Z,88.9
2017-10-23T01:38:49.517Z,89
2017-10-23T01:39:49.518Z,88.71
2017-10-23T01:40:49.530Z,89
2017-10-23T01:41:49.554Z,88.33
2017-10-23T01:42:49.570Z,88.61
2017-10-23T01:43:49.593Z,89
2017-10-23T01:44:49.605Z,88.61
2017-10-23T01:45:49.668Z,89.04
2017-10-23T01:46:49.639Z,88.42
2017-10-23T01:47:49.652Z,88.42
2017-10-23T01:48:49.673Z,88.9
2017-10-23T01:49:49.693Z,89.09
2017-10-23T01:50:49.703Z,88.52
2017-10-23T01:51:49.720Z,88.66
2017-10-23T01:52:49.761Z,88.18
2017-10-23T01:53:49.760Z,88.18
2017-10-23T01:54:49.774Z,88.46
2017-10-23T01:55:49.795Z,88.18
2017-10-23T01:56:49.805Z,88.85
2017-10-23T01:57:49.823Z,88.28
2017-10-23T01:58:49.847Z,88.37
2017-10-23T01:59:49.865Z,88.09
2017-10-23T02:00:49.880Z,88.28
2017-10-23T02:01:49.900Z,88.18
2017-10-23T02:02:49.912Z,89.09
2017-10-23T02:03:50.255Z,89.28
2017-10-23T02:04:49.946Z,89.66
2017-10-23T02:05:50.297Z,89.94
2017-10-23T02:06:49.983Z,89.47
2017-10-23T02:07:50.000Z,89.75
2017-10-23T02:08:50.014Z,89.85
2017-10-23T02:09:50.030Z,89.28
2017-10-23T02:10:50.056Z,89.66
2017-10-23T02:11:50.072Z,89.94
2017-10-23T02:12:50.087Z,89.23
2017-10-23T02:13:50.097Z,89.18
2017-10-23T02:14:50.118Z,89.09
2017-10-23T02:15:50.151Z,88.94
2017-10-23T02:16:50.154Z,88.9
2017-10-23T02:17:50.164Z,89.32
2017-10-23T02:18:50.184Z,89.18
2017-10-23T02:19:50.211Z,88.71
2017-10-23T02:20:50.219Z,89.04
2017-10-23T02:21:50.285Z,88.66
2017-10-23T02:22:50.251Z,88.37
2017-10-23T02:23:50.270Z,88.66
2017-10-23T02:24:50.285Z,88.8
2017-10-23T02:25:50.625Z,88.42
2017-10-23T02:26:50.329Z,89
2017-10-23T02:27:50.356Z,89.09
2017-10-23T02:28:50.364Z,89
2017-10-23T02:29:50.372Z,89.23
2017-10-23T02:30:50.400Z,88.71
2017-10-23T02:31:50.410Z,88.46
2017-10-23T02:32:50.428Z,88.28
2017-10-23T02:33:50.441Z,88.61
2017-10-23T02:34:50.777Z,88.52
2017-10-23T02:35:50.479Z,88.52
2017-10-23T02:36:50.494Z,88.9
2017-10-23T02:37:50.509Z,88.94
2017-10-23T02:38:50.527Z,89.14
2017-10-23T02:39:50.544Z,89.28
2017-10-23T02:40:50.642Z,89.94
2017-10-23T02:41:50.577Z,89.75
2017-10-23T02:42:50.957Z,89.99
2017-10-23T02:43:50.612Z,89.51
2017-10-23T02:44:50.630Z,89.32
2017-10-23T02:45:50.661Z,89.51
2017-10-23T02:46:50.660Z,89.7
2017-10-23T02:47:50.680Z,89.51
2017-10-23T02:48:50.700Z,89.51
2017-10-23T02:49:50.712Z,89.42
2017-10-23T02:50:50.728Z,89.42
2017-10-23T02:51:50.748Z,89.85
2017-10-23T02:52:50.787Z,89.85
2017-10-23T02:53:50.790Z,90.23
2017-10-23T02:54:50.798Z,89.85
2017-10-23T02:55:50.879Z,90.52
2017-10-23T02:56:50.844Z,89.94
2017-10-23T02:57:50.855Z,90.14
2017-10-23T02:58:50.872Z,90.52
2017-10-23T02:59:50.889Z,90.89
2017-10-23T03:00:50.902Z,90.52
2017-10-23T03:01:50.919Z,90.52
2017-10-23T03:02:51.260Z,90.42
2017-10-23T03:03:50.955Z,90.23
2017-10-23T03:04:50.971Z,89.85
2017-10-23T03:05:50.987Z,89.75
2017-10-23T03:06:51.004Z,90.14
2017-10-23T03:07:51.347Z,89.66
2017-10-23T03:08:51.047Z,90.23
2017-10-23T03:09:51.063Z,90.14
2017-10-23T03:10:51.072Z,90.04
2017-10-23T03:11:51.103Z,90.61
2017-10-23T03:12:51.112Z,90.04
2017-10-23T03:13:51.132Z,90.04
2017-10-23T03:14:51.148Z,90.33
2017-10-23T03:15:51.484Z,90.23
2017-10-23T03:16:51.183Z,90.52
2017-10-23T03:17:51.210Z,90.8
2017-10-23T03:18:51.214Z,89.47
2017-10-23T03:19:51.229Z,89.56
2017-10-23T03:20:51.249Z,88.85
2017-10-23T03:21:51.262Z,89.94
2017-10-23T03:22:51.283Z,89.37
2017-10-23T03:23:51.296Z,89.37
2017-10-23T03:24:51.313Z,89.47
2017-10-23T03:25:51.331Z,89.56
2017-10-23T03:26:51.353Z,89.37
2017-10-23T03:27:51.419Z,89.37
2017-10-23T03:28:51.380Z,89.09
2017-10-23T03:29:51.421Z,88.42
2017-10-23T03:30:51.415Z,89.28
2017-10-23T03:31:51.435Z,89.66
2017-10-23T03:32:51.452Z,89.09
2017-10-23T03:33:51.470Z,89.28
2017-10-23T03:34:51.488Z,88.75
2017-10-23T03:35:51.831Z,88.37
2017-10-23T03:36:51.522Z,88.09
2017-10-23T03:37:51.537Z,88.71
2017-10-23T03:38:51.553Z,88.8
2017-10-23T03:39:51.576Z,88.33
2017-10-23T03:40:51.587Z,88.66
2017-10-23T03:41:51.602Z,88.71
2017-10-23T03:42:51.633Z,88.61
2017-10-23T03:43:51.965Z,88.61
2017-10-23T03:44:52.168Z,87.52
2017-10-23T03:45:51.675Z,87.9
2017-10-23T03:46:52.067Z,88.23
2017-10-23T03:47:51.707Z,88.42
2017-10-23T03:48:51.724Z,88.23
2017-10-23T03:49:51.747Z,88.04
2017-10-23T03:50:51.758Z,87.95
2017-10-23T03:51:51.773Z,87.47
2017-10-23T03:52:51.793Z,88.13
2017-10-23T03:53:51.822Z,87.85
2017-10-23T03:54:51.825Z,87.47
2017-10-23T03:55:51.842Z,87.76
2017-10-23T03:56:51.864Z,88.04
2017-10-23T03:57:51.903Z,88.42
2017-10-23T03:58:51.912Z,87.85
2017-10-23T03:59:52.241Z,87.85
2017-10-23T04:00:52.313Z,87.47
2017-10-23T04:01:52.018Z,87.32
2017-10-23T04:02:52.310Z,87.76
2017-10-23T04:03:52.107Z,87.76
2017-10-23T04:04:52.001Z,87.32
2017-10-23T04:05:52.018Z,87.52
2017-10-23T04:06:52.059Z,86.8
2017-10-23T04:07:52.052Z,86.85
2017-10-23T04:08:52.072Z,87.52
2017-10-23T04:09:52.086Z,87.61
2017-10-23T04:10:52.100Z,87.13
2017-10-23T04:11:52.123Z,87.04
2017-10-23T04:12:52.470Z,87.38
2017-10-23T04:13:52.155Z,87.47
2017-10-23T04:14:52.166Z,87.66
2017-10-23T04:15:52.191Z,87.76
2017-10-23T04:16:52.204Z,87.38
2017-10-23T04:17:52.220Z,87.38
2017-10-23T04:18:52.283Z,86.99
2017-10-23T04:19:52.255Z,87.66
2017-10-23T04:20:52.274Z,87.57
2017-10-23T04:21:52.295Z,87.95
2017-10-23T04:22:52.305Z,87.47
2017-10-23T04:23:52.323Z,86.94
2017-10-23T04:24:52.344Z,87.76
2017-10-23T04:25:52.361Z,87.76
2017-10-23T04:26:52.377Z,87.38
2017-10-23T04:27:52.399Z,87.57
2017-10-23T04:28:52.415Z,87.76
2017-10-23T04:29:52.428Z,87.38
2017-10-23T04:30:52.452Z,87.23
2017-10-23T04:31:52.467Z,86.76
2017-10-23T04:32:52.480Z,86.28
2017-10-23T04:33:52.551Z,86.57
2017-10-23T04:34:52.848Z,87.23
2017-10-23T04:35:52.531Z,86.66
2017-10-23T04:36:52.557Z,87.09
2017-10-23T04:37:52.889Z,87.19
2017-10-23T04:38:52.580Z,86.66
2017-10-23T04:39:52.601Z,86.47
2017-10-23T04:40:52.614Z,86.61
2017-10-23T04:41:52.633Z,86.33
2017-10-23T04:42:52.654Z,86.66
2017-10-23T04:43:52.695Z,86.57
2017-10-23T04:44:52.683Z,86.14
2017-10-23T04:45:52.701Z,86.8
2017-10-23T04:46:52.723Z,86.8
2017-10-23T04:47:52.734Z,86.61
2017-10-23T04:48:52.817Z,86.76
2017-10-23T04:49:52.774Z,86.47
2017-10-23T04:50:52.794Z,86.18
2017-10-23T04:51:52.808Z,85.99
2017-10-23T04:52:52.819Z,85.8
2017-10-23T04:53:52.839Z,85.99
2017-10-23T04:54:52.860Z,86.33
2017-10-23T04:55:52.880Z,86.61
2017-10-23T04:56:52.888Z,86.52
2017-10-23T04:57:52.910Z,86.61
2017-10-23T04:58:52.928Z,86.14
2017-10-23T04:59:52.948Z,86.24
2017-10-23T05:00:52.972Z,86.14
2017-10-23T05:01:52.973Z,86.71
2017-10-23T05:02:52.998Z,86.71
2017-10-23T05:03:53.022Z,86.61
2017-10-23T05:04:53.033Z,86.47
2017-10-23T05:05:53.046Z,85.99
2017-10-23T05:06:53.064Z,85.95
2017-10-23T05:07:53.087Z,86.18
2017-10-23T05:08:53.106Z,86.09
2017-10-23T05:09:53.111Z,85.8
2017-10-23T05:10:53.130Z,86.14
2017-10-23T05:11:53.148Z,86.24
2017-10-23T05:12:53.497Z,86.24
2017-10-23T05:13:53.186Z,85.99
2017-10-23T05:14:53.197Z,86.24
2017-10-23T05:15:53.217Z,86.14
2017-10-23T05:16:53.234Z,85.71
2017-10-23T05:17:53.251Z,85.95
2017-10-23T05:18:53.280Z,85.99
2017-10-23T05:19:53.289Z,85.99
2017-10-23T05:20:53.301Z,85.95
2017-10-23T05:21:53.318Z,85.86
2017-10-23T05:22:53.340Z,86.33
2017-10-23T05:23:53.353Z,86.71
2017-10-23T05:24:53.378Z,86.52
2017-10-23T05:25:53.428Z,86.71
2017-10-23T05:26:53.408Z,86.8
2017-10-23T05:27:53.423Z,86.52
2017-10-23T05:28:53.784Z,86.71
2017-10-23T05:29:53.457Z,85.95
2017-10-23T05:30:53.476Z,86.05
2017-10-23T05:31:53.488Z,85.95
2017-10-23T05:32:53.509Z,86.05
2017-10-23T05:33:53.528Z,85.47
2017-10-23T05:34:53.543Z,85.52
2017-10-23T05:35:53.882Z,85.57
2017-10-23T05:36:53.590Z,85.57
2017-10-23T05:37:53.589Z,86.14
2017-10-23T05:38:53.609Z,86.14
2017-10-23T05:39:53.640Z,85.38
2017-10-23T05:40:53.644Z,85.8
2017-10-23T05:41:53.713Z,85.66
2017-10-23T05:42:53.680Z,85.04
2017-10-23T05:43:53.694Z,85.04
2017-10-23T05:44:53.730Z,85.04
2017-10-23T05:45:54.059Z,85.42
2017-10-23T05:46:53.744Z,85.24
2017-10-23T05:47:53.763Z,84.85
2017-10-23T05:48:53.779Z,84.56
2017-10-23T05:49:53.805Z,84.76
2017-10-23T05:50:53.822Z,84.56
2017-10-23T05:51:53.833Z,84.56
2017-10-23T05:52:53.852Z,85.04
2017-10-23T05:53:53.870Z,84.38
2017-10-23T05:54:53.897Z,84
2017-10-23T05:55:53.902Z,84.38
2017-10-23T05:56:53.921Z,84.47
2017-10-23T05:57:53.934Z,84.28
2017-10-23T05:58:53.953Z,84.85
2017-10-23T05:59:53.972Z,84.85
2017-10-23T06:00:53.992Z,84.66
2017-10-23T06:01:54.007Z,84.09
2017-10-23T06:02:54.024Z,85.47
2017-10-23T06:03:54.048Z,85.57
2017-10-23T06:04:54.059Z,85.66
2017-10-23T06:05:54.077Z,86.05
2017-10-23T06:06:54.088Z,85.52
2017-10-23T06:07:54.110Z,85.1
2017-10-23T06:08:54.121Z,85.28
2017-10-23T06:09:54.147Z,85.28
2017-10-23T06:10:54.162Z,85.57
2017-10-23T06:11:54.181Z,85.28
2017-10-23T06:12:54.203Z,86.05
2017-10-23T06:13:54.218Z,85.38
2017-10-23T06:14:54.227Z,85.86
2017-10-23T06:15:54.252Z,85.95
2017-10-23T06:16:54.268Z,85.76
2017-10-23T06:17:54.339Z,85.38
2017-10-23T06:18:54.300Z,85.1
2017-10-23T06:19:54.321Z,85.95
2017-10-23T06:20:54.665Z,85.76
2017-10-23T06:21:54.675Z,85.86
2017-10-23T06:22:54.379Z,85.86
2017-10-23T06:23:54.382Z,85.66
2017-10-23T06:24:54.418Z,86.05
2017-10-23T06:25:54.414Z,86.05
2017-10-23T06:26:54.442Z,85.86
2017-10-23T06:27:54.450Z,86.24
2017-10-23T06:28:54.467Z,86.24
2017-10-23T06:29:54.500Z,86.05
2017-10-23T06:30:54.504Z,86.05
2017-10-23T06:31:54.518Z,86.24
2017-10-23T06:32:54.537Z,85.86
2017-10-23T06:33:54.559Z,86.05
2017-10-23T06:34:54.604Z,86.05
2017-10-23T06:35:54.596Z,86.14
2017-10-23T06:36:54.604Z,85.76
2017-10-23T06:37:54.633Z,86.14
2017-10-23T06:38:54.974Z,85.95
2017-10-23T06:39:54.661Z,85.86
2017-10-23T06:40:54.674Z,86.24
2017-10-23T06:41:54.696Z,86.33
2017-10-23T06:42:54.713Z,86.24
2017-10-23T06:43:54.729Z,85.76
2017-10-23T06:44:54.742Z,86.43
2017-10-23T06:45:54.757Z,86.71
2017-10-23T06:46:54.782Z,86.61
2017-10-23T06:47:54.799Z,86.43
2017-10-23T06:48:54.810Z,86.52
2017-10-23T06:49:54.831Z,85.99
2017-10-23T06:50:54.849Z,85.86
2017-10-23T06:51:54.862Z,85.86
2017-10-23T06:52:54.880Z,86.24
2017-10-23T06:53:55.221Z,86.14
2017-10-23T06:54:54.923Z,85.76
2017-10-23T06:55:54.931Z,85.76
2017-10-23T06:56:54.950Z,86.8
2017-10-23T06:57:54.971Z,85.95
2017-10-23T06:58:54.986Z,86.14
2017-10-23T06:59:55.335Z,85.76
2017-10-23T07:00:55.016Z,85.47
2017-10-23T07:01:55.035Z,85.95
2017-10-23T07:02:55.055Z,86.24
2017-10-23T07:03:55.074Z,85.86
2017-10-23T07:04:55.091Z,85.24
2017-10-23T07:05:55.113Z,85.38
2017-10-23T07:06:55.125Z,85.66
2017-10-23T07:07:55.137Z,85.52
2017-10-23T07:08:55.160Z,85.86
2017-10-23T07:09:55.172Z,85.61
2017-10-23T07:10:55.194Z,85.71
2017-10-23T07:11:55.224Z,85.8
2017-10-23T07:12:55.585Z,85.42
2017-10-23T07:13:55.259Z,85.8
2017-10-23T07:14:55.265Z,85.61
2017-10-23T07:15:55.285Z,85.52
2017-10-23T07:16:55.295Z,86.05
2017-10-23T07:17:55.313Z,86.43
2017-10-23T07:18:55.333Z,86.05
2017-10-23T07:19:55.347Z,85.9
2017-10-23T07:20:55.374Z,85.99
2017-10-23T07:21:55.391Z,85.8
2017-10-23T07:22:55.408Z,85.9
2017-10-23T07:23:55.438Z,85.9
2017-10-23T07:24:55.791Z,85.8
2017-10-23T07:25:55.453Z,86.18
2017-10-23T07:26:55.472Z,86.05
2017-10-23T07:27:55.496Z,85.9
2017-10-23T07:28:55.511Z,86.05
2017-10-23T07:29:55.531Z,86.52
2017-10-23T07:30:55.539Z,86.05
2017-10-23T07:31:55.554Z,85.66
2017-10-23T07:32:56.019Z,85.8
2017-10-23T07:33:55.597Z,85.71
2017-10-23T07:34:55.611Z,86.09
2017-10-23T07:35:55.629Z,86.09
2017-10-23T07:36:55.649Z,85.71
2017-10-23T07:37:55.984Z,85.61
2017-10-23T07:38:55.683Z,84.85
2017-10-23T07:39:55.696Z,85.14
2017-10-23T07:40:55.715Z,84.85
2017-10-23T07:41:55.725Z,84.76
2017-10-23T07:42:55.748Z,84.76
2017-10-23T07:43:55.764Z,85.52
2017-10-23T07:44:55.778Z,85.33
2017-10-23T07:45:55.806Z,85.52
2017-10-23T07:46:55.822Z,85.33
2017-10-23T07:47:55.858Z,85.14
2017-10-23T07:48:55.875Z,84.76
2017-10-23T07:49:55.866Z,84.38
2017-10-23T07:50:55.887Z,84.38
2017-10-23T07:51:55.900Z,83.62
2017-10-23T07:52:55.928Z,83.37
2017-10-23T07:53:55.940Z,82.99
2017-10-23T07:54:55.959Z,83.47
2017-10-23T07:55:55.971Z,84.28
2017-10-23T07:56:55.996Z,84.09
2017-10-23T07:57:56.007Z,83.52
2017-10-23T07:58:56.032Z,83.62
2017-10-23T07:59:56.042Z,83.52
2017-10-23T08:00:56.060Z,84.09
2017-10-23T08:01:56.076Z,84.28
2017-10-23T08:02:56.115Z,83.9
2017-10-23T08:03:56.132Z,85.04
2017-10-23T08:04:56.133Z,84.95
2017-10-23T08:05:56.475Z,84.85
2017-10-23T08:06:56.175Z,84.47
2017-10-23T08:07:56.182Z,83.81
2017-10-23T08:08:56.208Z,83.9
2017-10-23T08:09:56.218Z,84.95
2017-10-23T08:10:56.240Z,84.95
2017-10-23T08:11:56.263Z,84.28
2017-10-23T08:12:56.273Z,84.47
2017-10-23T08:13:56.295Z,83.52
2017-10-23T08:14:56.304Z,83.71
2017-10-23T08:15:56.656Z,83.81
2017-10-23T08:16:56.342Z,84
2017-10-23T08:17:56.362Z,83.71
2017-10-23T08:18:56.375Z,83.62
2017-10-23T08:19:56.394Z,84.47
2017-10-23T08:20:56.408Z,85.71
2017-10-23T08:21:56.427Z,86.09
2017-10-23T08:22:56.445Z,85.99
2017-10-23T08:23:56.464Z,85.99
2017-10-23T08:24:56.481Z,86.66
2017-10-23T08:25:56.517Z,86.09
2017-10-23T08:26:56.523Z,86.47
2017-10-23T08:27:56.911Z,86.18
2017-10-23T08:28:56.549Z,86.28
2017-10-23T08:29:56.576Z,86.09
2017-10-23T08:30:56.587Z,86.66
2017-10-23T08:31:56.605Z,85.61
2017-10-23T08:32:56.619Z,85.61
2017-10-23T08:33:56.649Z,85.99
2017-10-23T08:34:56.674Z,85.99
2017-10-23T08:35:56.686Z,85.8
2017-10-23T08:36:56.694Z,85.9
2017-10-23T16:45:32.966Z,84.04
2017-10-23T16:46:32.665Z,84.99
2017-10-23T16:47:33.005Z,84.7
2017-10-23T16:48:32.705Z,84.89
2017-10-23T16:49:33.039Z,84.7
2017-10-23T16:50:33.061Z,84.99
2017-10-23T16:51:32.752Z,84.99
2017-10-23T16:52:33.097Z,84.94
2017-10-23T16:53:33.110Z,84.46
2017-10-23T16:54:33.128Z,84.52
2017-10-23T16:55:33.160Z,84.94
2017-10-23T16:56:33.163Z,84.94
2017-10-23T16:57:33.185Z,84.89
2017-10-23T16:58:32.877Z,85.08
2017-10-23T16:59:33.222Z,84.61
2017-10-23T17:00:33.294Z,84.99
2017-10-23T17:01:33.254Z,84.56
2017-10-23T17:02:33.274Z,84.17
2017-10-23T17:03:33.307Z,84.61
2017-10-23T17:04:33.318Z,84.61
2017-10-23T17:05:33.321Z,84.75
2017-10-23T17:06:33.019Z,84.75
2017-10-23T17:07:33.360Z,84.94
2017-10-23T17:08:33.389Z,85.13
2017-10-23T17:09:33.073Z,84.65
2017-10-23T17:10:33.461Z,84.84
2017-10-23T17:11:33.108Z,84.84
2017-10-23T17:12:33.126Z,84.36
2017-10-23T17:13:33.464Z,84.46
2017-10-23T17:14:33.163Z,84.94
2017-10-23T17:15:33.500Z,85.56
2017-10-23T17:16:33.520Z,85.47
2017-10-23T17:17:33.537Z,85.22
2017-10-23T17:18:33.560Z,85.13
2017-10-23T17:19:33.252Z,84.94
2017-10-23T17:20:33.592Z,84.94
2017-10-23T17:21:33.610Z,84.46
2017-10-23T17:22:33.308Z,84.17
2017-10-23T17:23:33.648Z,84.46
2017-10-23T17:24:33.674Z,84.27
2017-10-23T17:25:33.683Z,84.08
2017-10-23T17:26:33.720Z,84.36
2017-10-23T17:27:33.721Z,84.84
2017-10-23T17:28:33.736Z,85.03
2017-10-23T17:29:33.485Z,84.56
2017-10-23T17:30:33.772Z,85.32
2017-10-23T17:31:33.788Z,86.08
2017-10-23T17:32:33.491Z,85.99
2017-10-23T17:33:33.824Z,86.08
2017-10-23T17:34:33.844Z,86.32
2017-10-23T17:35:33.866Z,85.94
2017-10-23T17:36:33.561Z,86.18
2017-10-23T17:37:33.588Z,86.08
2017-10-23T17:38:33.920Z,85.94
2017-10-23T17:39:33.938Z,85.56
2017-10-23T17:40:33.977Z,85.47
2017-10-23T17:41:33.977Z,85.47
2017-10-23T17:42:33.988Z,85.47
2017-10-23T17:43:34.008Z,85.66
2017-10-23T17:44:34.079Z,86.04
2017-10-23T17:45:33.721Z,85.03
2017-10-23T17:46:33.752Z,85.32
2017-10-23T17:47:33.754Z,84.84
2017-10-23T17:48:34.093Z,84.75
2017-10-23T17:49:34.113Z,84.84
2017-10-23T17:50:33.811Z,84.65
2017-10-23T17:51:34.149Z,84.84
2017-10-23T17:52:33.846Z,84.46
2017-10-23T17:53:33.864Z,84.46
2017-10-23T17:54:34.210Z,84.27
2017-10-23T17:55:34.235Z,84.52
2017-10-23T17:56:33.917Z,84.08
2017-10-23T17:57:33.937Z,84.42
2017-10-23T17:58:34.276Z,83.98
2017-10-23T17:59:33.966Z,83.75
2017-10-23T18:00:34.307Z,84.36
2017-10-23T18:01:34.327Z,84.13
2017-10-23T18:02:34.345Z,84.33
2017-10-23T18:03:34.042Z,83.8
2017-10-23T18:04:34.059Z,84.04
2017-10-23T18:05:34.078Z,83.47
2017-10-23T18:06:34.096Z,83.56
2017-10-23T18:07:34.435Z,83.61
2017-10-23T18:08:34.451Z,83.8
2017-10-23T18:09:34.148Z,83.61
2017-10-23T18:10:34.486Z,83.8
2017-10-23T18:11:34.507Z,83.47
2017-10-23T18:12:34.200Z,83.61
2017-10-23T18:13:34.220Z,84.23
2017-10-23T18:14:34.560Z,84.13
2017-10-23T18:15:34.274Z,83.8
2017-10-23T18:16:34.593Z,83.61
2017-10-23T18:17:34.610Z,84.04
2017-10-23T18:18:34.308Z,84.13
2017-10-23T18:19:34.380Z,84.52
2017-10-23T18:20:34.666Z,83.75
2017-10-23T18:21:34.679Z,83.75
2017-10-23T18:22:34.383Z,83.56
2017-10-23T18:23:34.722Z,83.47
2017-10-23T18:24:34.414Z,83.37
2017-10-23T18:25:34.751Z,83.94
2017-10-23T18:26:34.450Z,83.65
2017-10-23T18:27:34.792Z,83.85
2017-10-23T18:28:34.485Z,83.47
2017-10-23T18:29:34.832Z,83.94
2017-10-23T18:30:34.521Z,84.13
2017-10-23T18:31:34.539Z,83.37
2017-10-23T18:32:34.880Z,83.32
2017-10-23T18:33:34.574Z,83.47
2017-10-23T18:34:34.913Z,83.56
2017-10-23T18:35:34.930Z,83.18
2017-10-23T18:36:34.995Z,83.75
2017-10-23T18:37:34.966Z,84.33
2017-10-23T18:38:34.991Z,84.33
2017-10-23T18:39:35.000Z,84.04
2017-10-23T18:40:34.696Z,83.56
2017-10-23T18:41:35.036Z,83.75
2017-10-23T18:42:35.054Z,83.47
2017-10-23T18:43:35.071Z,83.56
2017-10-23T18:44:35.137Z,83.47
2017-10-23T18:45:34.784Z,83.37
2017-10-23T18:46:35.120Z,83.65
2017-10-23T18:47:35.146Z,83.18
2017-10-23T18:48:35.160Z,83.18
2017-10-23T18:49:34.854Z,83.47
2017-10-23T18:50:34.872Z,83.7
2017-10-23T18:51:35.213Z,83.94
2017-10-23T18:52:35.231Z,84.23
2017-10-23T18:53:34.927Z,84.99
2017-10-23T18:54:35.265Z,84.89
2017-10-23T18:55:34.960Z,84.8
2017-10-23T18:56:34.979Z,84.99
2017-10-23T18:57:35.320Z,85.28
2017-10-23T18:58:35.014Z,84.61
2017-10-23T18:59:35.410Z,84.61
2017-10-23T19:00:35.373Z,84.61
2017-10-23T19:01:35.388Z,84.8
2017-10-23T19:02:35.087Z,84.8
2017-10-23T19:03:35.421Z,83.98
2017-10-23T19:04:35.439Z,84.52
2017-10-23T19:05:35.134Z,84.23
2017-10-23T19:06:35.485Z,84.33
2017-10-23T19:07:35.491Z,85.08
2017-10-23T19:08:35.187Z,84.8
2017-10-23T19:09:35.528Z,84.8
2017-10-23T19:10:35.544Z,85.08
2017-10-23T19:11:35.559Z,84.89
2017-10-23T19:12:35.258Z,84.42
2017-10-23T19:13:35.596Z,84.23
2017-10-23T19:14:35.617Z,83.85
2017-10-23T19:15:35.645Z,84.33
2017-10-23T19:16:35.648Z,84.36
2017-10-23T19:17:35.667Z,84.23
2017-10-23T19:18:35.361Z,84.04
2017-10-23T19:19:35.701Z,84.33
2017-10-23T19:20:35.718Z,83.85
2017-10-23T19:21:35.753Z,84.52
2017-10-23T19:22:35.433Z,84.42
2017-10-23T19:23:35.782Z,84.61
2017-10-23T19:24:35.798Z,84.23
2017-10-23T19:25:35.810Z,84.08
2017-10-23T19:26:35.505Z,84.13
2017-10-23T19:27:35.522Z,84.89
2017-10-23T19:28:35.866Z,85.18
2017-10-23T19:29:35.879Z,85.28
2017-10-23T19:30:35.896Z,85.18
2017-10-23T19:31:35.914Z,85.08
2017-10-23T19:32:35.941Z,85.47
2017-10-23T19:33:35.949Z,85.85
2017-10-23T19:34:35.646Z,85.94
2017-10-23T19:35:35.988Z,85.85
2017-10-23T19:36:35.682Z,85.94
2017-10-23T19:37:36.021Z,86.22
2017-10-23T19:38:35.712Z,86.22
2017-10-23T19:39:36.068Z,85.18
2017-10-23T19:40:36.072Z,85.47
2017-10-23T19:41:36.089Z,85.56
2017-10-23T19:42:35.789Z,85.47
2017-10-23T19:43:35.805Z,85.85
2017-10-23T19:44:36.144Z,85.37
2017-10-23T19:45:36.163Z,85.47
2017-10-23T19:46:35.855Z,85.37
2017-10-23T19:47:35.879Z,85.7
2017-10-23T19:48:35.894Z,86.04
2017-10-23T19:49:35.909Z,85.56
2017-10-23T19:50:35.925Z,84.99
2017-10-23T19:51:36.264Z,85.18
2017-10-23T19:52:36.281Z,85.75
2017-10-23T19:53:36.301Z,86.13
2017-10-23T19:54:36.316Z,86.04
2017-10-23T19:55:36.333Z,86.13
2017-10-23T19:56:36.352Z,85.56
2017-10-23T19:57:36.372Z,85.66
2017-10-23T19:58:36.066Z,85.37
2017-10-23T19:59:36.406Z,85.47
2017-10-23T20:00:36.422Z,85.56
2017-10-23T20:01:36.447Z,86.04
2017-10-23T20:02:36.472Z,85.37
2017-10-23T20:03:36.481Z,85.56
2017-10-23T20:04:36.174Z,85.56
2017-10-23T20:05:36.193Z,85.66
2017-10-23T20:06:36.530Z,85.28
2017-10-23T20:07:36.227Z,85.75
2017-10-23T20:08:36.563Z,85.47
2017-10-23T20:09:36.587Z,85.47
2017-10-23T20:10:36.279Z,85.37
2017-10-23T20:11:36.619Z,84.99
2017-10-23T20:12:36.637Z,84.8
2017-10-23T20:13:36.349Z,84.89
2017-10-23T20:14:36.351Z,85.28
2017-10-23T20:15:36.696Z,84.99
2017-10-23T20:16:36.707Z,85.28
2017-10-23T20:17:36.727Z,85.56
2017-10-23T20:18:36.421Z,85.47
2017-10-23T20:19:36.439Z,85.66
2017-10-23T20:20:36.458Z,85.47
2017-10-23T20:21:36.807Z,85.37
2017-10-23T20:22:36.814Z,85.37
2017-10-23T20:23:36.508Z,84.89
2017-10-23T20:24:36.855Z,84.8
2017-10-23T20:25:36.549Z,85.08
2017-10-23T20:26:36.563Z,85.08
2017-10-23T20:27:36.900Z,85.18
2017-10-23T20:28:36.596Z,85.08
2017-10-23T20:29:36.614Z,85.47
2017-10-23T20:30:36.631Z,85.28
2017-10-23T20:31:36.987Z,85.28
2017-10-23T20:32:37.000Z,85.18
2017-10-23T20:33:37.006Z,85.56
2017-10-23T20:34:37.023Z,86.04
2017-10-23T20:35:36.723Z,85.75
2017-10-23T20:36:36.748Z,86.13
2017-10-23T20:37:37.078Z,85.66
2017-10-23T20:38:37.104Z,85.37
2017-10-23T20:39:36.794Z,85.94
2017-10-23T20:40:36.811Z,85.28
2017-10-23T20:41:37.156Z,84.7
2017-10-23T20:42:36.851Z,85.18
2017-10-23T20:43:37.189Z,84.89
2017-10-23T20:44:37.203Z,85.08
2017-10-23T20:45:37.222Z,85.28
2017-10-23T20:46:37.237Z,84.99
2017-10-23T20:47:36.934Z,84.7
2017-10-23T20:48:36.952Z,84.99
2017-10-23T20:49:37.290Z,85.18
2017-10-23T20:50:37.315Z,84.89
2017-10-23T20:51:37.005Z,85.28
2017-10-23T20:52:37.349Z,84.99
2017-10-23T20:53:37.362Z,85.18
2017-10-23T20:54:37.378Z,84.8
2017-10-23T20:55:37.082Z,84.61
2017-10-23T20:56:37.417Z,84.61
2017-10-23T20:57:37.439Z,84.61
2017-10-23T20:58:37.129Z,84.89
2017-10-23T20:59:37.477Z,84.65
2017-10-23T21:00:37.497Z,84.33
2017-10-23T21:01:37.510Z,84.13
2017-10-23T21:02:37.199Z,85.18
2017-10-23T21:03:37.542Z,84.89